Layton, Utah
Current Conditions -  °F | °C
As of 4:58 AM on Friday 28 Nov 2014 (Local Time) from KHIF Reporting Station
Clear Clear  
Wind Chill: 38°   Ceiling: Unl
Heat Index: 43°   Visibility: 10mi
Dew Point: 24°   Wind: 9mph
Humidity: 46%   Direction: 160°SSE
Pressure: 30.05"   Gusts: NA
Location:  41.07°N, 111.96°W
Report Text: KHIF 281158Z AUTO 16008KT 10SM CLR 06/M05 A3005 RMK AO2 SLP156 T00621046 10077 20057 57012
Loading
Personal Weather Stations






























Interactive Weather Map New forecast layout! Learn more

10-Day Weather Forecast

Advertisements
Track Severe Weather on mobile